sensor_id;sensor_type;location;lat;lon;timestamp;P1;durP1;ratioP1;P2;durP2;ratioP2
5412;SDS011;2729;50.056;8.678;2022-08-19T00:01:49;9.77;;;6.80;;
5412;SDS011;2729;50.056;8.678;2022-08-19T00:04:18;9.07;;;6.70;;
5412;SDS011;2729;50.056;8.678;2022-08-19T00:06:45;9.83;;;6.90;;
5412;SDS011;2729;50.056;8.678;2022-08-19T00:09:13;8.57;;;7.00;;
5412;SDS011;2729;50.056;8.678;2022-08-19T00:11:40;10.53;;;7.23;;
5412;SDS011;2729;50.056;8.678;2022-08-19T00:14:07;11.20;;;7.63;;
5412;SDS011;2729;50.056;8.678;2022-08-19T00:16:35;7.50;;;6.50;;
5412;SDS011;2729;50.056;8.678;2022-08-19T00:19:03;10.40;;;7.50;;
5412;SDS011;2729;50.056;8.678;2022-08-19T00:21:29;10.40;;;6.80;;
5412;SDS011;2729;50.056;8.678;2022-08-19T00:23:55;10.00;;;7.53;;
5412;SDS011;2729;50.056;8.678;2022-08-19T00:26:24;9.60;;;6.70;;
5412;SDS011;2729;50.056;8.678;2022-08-19T00:28:51;9.90;;;7.00;;
5412;SDS011;2729;50.056;8.678;2022-08-19T00:31:17;10.00;;;7.40;;
5412;SDS011;2729;50.056;8.678;2022-08-19T00:33:43;11.60;;;7.40;;
5412;SDS011;2729;50.056;8.678;2022-08-19T00:36:09;9.77;;;6.63;;
5412;SDS011;2729;50.056;8.678;2022-08-19T00:38:36;12.53;;;8.13;;
5412;SDS011;2729;50.056;8.678;2022-08-19T00:41:07;11.93;;;7.57;;
5412;SDS011;2729;50.056;8.678;2022-08-19T00:43:34;11.50;;;7.43;;
5412;SDS011;2729;50.056;8.678;2022-08-19T00:46:00;10.53;;;8.17;;
5412;SDS011;2729;50.056;8.678;2022-08-19T00:48:30;10.67;;;7.50;;
5412;SDS011;2729;50.056;8.678;2022-08-19T00:50:57;9.17;;;7.40;;
5412;SDS011;2729;50.056;8.678;2022-08-19T00:53:24;10.60;;;6.97;;
5412;SDS011;2729;50.056;8.678;2022-08-19T00:55:53;11.40;;;7.37;;
5412;SDS011;2729;50.056;8.678;2022-08-19T00:58:23;9.77;;;7.70;;
5412;SDS011;2729;50.056;8.678;2022-08-19T01:00:52;9.73;;;6.90;;
5412;SDS011;2729;50.056;8.678;2022-08-19T01:03:19;9.47;;;7.47;;
5412;SDS011;2729;50.056;8.678;2022-08-19T01:05:46;11.03;;;7.63;;
5412;SDS011;2729;50.056;8.678;2022-08-19T01:08:15;8.67;;;6.70;;
5412;SDS011;2729;50.056;8.678;2022-08-19T01:10:47;9.43;;;6.47;;
5412;SDS011;2729;50.056;8.678;2022-08-19T01:13:17;13.17;;;7.03;;
5412;SDS011;2729;50.056;8.678;2022-08-19T01:15:53;13.50;;;7.10;;
5412;SDS011;2729;50.056;8.678;2022-08-19T01:18:22;9.63;;;6.77;;
5412;SDS011;2729;50.056;8.678;2022-08-19T01:20:51;10.40;;;6.60;;
5412;SDS011;2729;50.056;8.678;2022-08-19T01:23:19;9.53;;;6.90;;
5412;SDS011;2729;50.056;8.678;2022-08-19T01:25:48;8.60;;;6.50;;
5412;SDS011;2729;50.056;8.678;2022-08-19T01:28:17;9.50;;;6.40;;
5412;SDS011;2729;50.056;8.678;2022-08-19T01:30:49;8.40;;;6.20;;
5412;SDS011;2729;50.056;8.678;2022-08-19T01:33:15;12.70;;;6.10;;
5412;SDS011;2729;50.056;8.678;2022-08-19T01:35:41;11.10;;;7.50;;
5412;SDS011;2729;50.056;8.678;2022-08-19T01:38:10;8.20;;;6.03;;
5412;SDS011;2729;50.056;8.678;2022-08-19T01:40:49;9.80;;;6.53;;
5412;SDS011;2729;50.056;8.678;2022-08-19T01:43:16;7.70;;;6.27;;
5412;SDS011;2729;50.056;8.678;2022-08-19T01:45:45;8.00;;;5.73;;
5412;SDS011;2729;50.056;8.678;2022-08-19T01:48:12;10.60;;;6.63;;
5412;SDS011;2729;50.056;8.678;2022-08-19T01:50:40;7.67;;;5.80;;
5412;SDS011;2729;50.056;8.678;2022-08-19T01:53:10;8.07;;;5.57;;
5412;SDS011;2729;50.056;8.678;2022-08-19T01:55:37;8.20;;;6.10;;
5412;SDS011;2729;50.056;8.678;2022-08-19T01:58:05;8.83;;;6.13;;
5412;SDS011;2729;50.056;8.678;2022-08-19T02:00:36;8.27;;;5.83;;
5412;SDS011;2729;50.056;8.678;2022-08-19T02:03:02;8.87;;;6.50;;
5412;SDS011;2729;50.056;8.678;2022-08-19T02:05:28;8.30;;;6.07;;
5412;SDS011;2729;50.056;8.678;2022-08-19T02:07:56;8.77;;;6.00;;
5412;SDS011;2729;50.056;8.678;2022-08-19T02:10:22;8.37;;;5.90;;
5412;SDS011;2729;50.056;8.678;2022-08-19T02:12:49;7.50;;;6.13;;
5412;SDS011;2729;50.056;8.678;2022-08-19T02:15:15;9.00;;;5.67;;
5412;SDS011;2729;50.056;8.678;2022-08-19T02:17:44;9.60;;;6.20;;
5412;SDS011;2729;50.056;8.678;2022-08-19T02:20:10;8.30;;;6.23;;
5412;SDS011;2729;50.056;8.678;2022-08-19T02:22:38;8.23;;;6.10;;
5412;SDS011;2729;50.056;8.678;2022-08-19T02:25:07;8.50;;;5.80;;
5412;SDS011;2729;50.056;8.678;2022-08-19T02:27:33;8.27;;;6.10;;
5412;SDS011;2729;50.056;8.678;2022-08-19T02:29:59;9.00;;;6.60;;
5412;SDS011;2729;50.056;8.678;2022-08-19T02:32:26;7.93;;;5.90;;
5412;SDS011;2729;50.056;8.678;2022-08-19T02:34:52;7.60;;;5.50;;
5412;SDS011;2729;50.056;8.678;2022-08-19T02:37:18;7.37;;;5.20;;
5412;SDS011;2729;50.056;8.678;2022-08-19T02:40:03;6.97;;;5.93;;
5412;SDS011;2729;50.056;8.678;2022-08-19T02:42:29;8.33;;;5.27;;
5412;SDS011;2729;50.056;8.678;2022-08-19T02:44:56;7.20;;;5.60;;
5412;SDS011;2729;50.056;8.678;2022-08-19T02:47:22;7.97;;;5.87;;
5412;SDS011;2729;50.056;8.678;2022-08-19T02:49:47;7.80;;;5.63;;
5412;SDS011;2729;50.056;8.678;2022-08-19T02:52:15;6.87;;;5.47;;
5412;SDS011;2729;50.056;8.678;2022-08-19T02:54:42;10.00;;;5.73;;
5412;SDS011;2729;50.056;8.678;2022-08-19T02:57:08;7.00;;;5.47;;
5412;SDS011;2729;50.056;8.678;2022-08-19T02:59:34;7.57;;;5.90;;
5412;SDS011;2729;50.056;8.678;2022-08-19T03:02:00;8.27;;;5.73;;
5412;SDS011;2729;50.056;8.678;2022-08-19T03:04:26;8.30;;;5.37;;
5412;SDS011;2729;50.056;8.678;2022-08-19T03:06:52;11.37;;;6.30;;
5412;SDS011;2729;50.056;8.678;2022-08-19T03:09:18;10.30;;;5.80;;
5412;SDS011;2729;50.056;8.678;2022-08-19T03:11:45;7.20;;;5.30;;
5412;SDS011;2729;50.056;8.678;2022-08-19T03:14:12;9.87;;;5.50;;
5412;SDS011;2729;50.056;8.678;2022-08-19T03:16:48;7.10;;;5.40;;
5412;SDS011;2729;50.056;8.678;2022-08-19T03:19:17;11.20;;;5.23;;
5412;SDS011;2729;50.056;8.678;2022-08-19T03:21:45;13.13;;;5.83;;
5412;SDS011;2729;50.056;8.678;2022-08-19T03:24:12;8.27;;;6.17;;
5412;SDS011;2729;50.056;8.678;2022-08-19T03:26:40;8.10;;;5.30;;
5412;SDS011;2729;50.056;8.678;2022-08-19T03:29:07;9.40;;;5.73;;
5412;SDS011;2729;50.056;8.678;2022-08-19T03:31:35;7.50;;;5.80;;
5412;SDS011;2729;50.056;8.678;2022-08-19T03:34:02;8.40;;;5.37;;
5412;SDS011;2729;50.056;8.678;2022-08-19T03:36:27;6.50;;;5.50;;
5412;SDS011;2729;50.056;8.678;2022-08-19T03:38:55;6.53;;;5.07;;
5412;SDS011;2729;50.056;8.678;2022-08-19T03:41:24;15.93;;;7.60;;
5412;SDS011;2729;50.056;8.678;2022-08-19T03:43:52;6.93;;;5.80;;
5412;SDS011;2729;50.056;8.678;2022-08-19T03:46:20;6.83;;;5.43;;
5412;SDS011;2729;50.056;8.678;2022-08-19T03:48:52;7.73;;;5.90;;
5412;SDS011;2729;50.056;8.678;2022-08-19T03:51:21;5.70;;;4.80;;
5412;SDS011;2729;50.056;8.678;2022-08-19T03:53:50;7.30;;;5.97;;
5412;SDS011;2729;50.056;8.678;2022-08-19T03:56:17;7.80;;;6.00;;
5412;SDS011;2729;50.056;8.678;2022-08-19T03:58:43;10.50;;;5.67;;
5412;SDS011;2729;50.056;8.678;2022-08-19T04:01:11;6.70;;;5.53;;
5412;SDS011;2729;50.056;8.678;2022-08-19T04:03:40;7.63;;;5.63;;
5412;SDS011;2729;50.056;8.678;2022-08-19T04:06:10;7.10;;;5.60;;
5412;SDS011;2729;50.056;8.678;2022-08-19T04:08:41;7.20;;;5.80;;
5412;SDS011;2729;50.056;8.678;2022-08-19T04:11:09;8.93;;;5.07;;
5412;SDS011;2729;50.056;8.678;2022-08-19T04:13:36;8.20;;;5.90;;
5412;SDS011;2729;50.056;8.678;2022-08-19T04:16:02;7.50;;;5.40;;
5412;SDS011;2729;50.056;8.678;2022-08-19T04:18:29;6.73;;;5.90;;
5412;SDS011;2729;50.056;8.678;2022-08-19T04:20:55;6.60;;;5.20;;
5412;SDS011;2729;50.056;8.678;2022-08-19T04:23:22;6.57;;;5.23;;
5412;SDS011;2729;50.056;8.678;2022-08-19T04:25:49;8.40;;;5.60;;
5412;SDS011;2729;50.056;8.678;2022-08-19T04:28:15;7.77;;;5.70;;
5412;SDS011;2729;50.056;8.678;2022-08-19T04:30:43;7.80;;;5.23;;
5412;SDS011;2729;50.056;8.678;2022-08-19T04:33:15;8.27;;;5.80;;
5412;SDS011;2729;50.056;8.678;2022-08-19T04:35:43;7.73;;;6.40;;
5412;SDS011;2729;50.056;8.678;2022-08-19T04:38:11;7.27;;;5.80;;
5412;SDS011;2729;50.056;8.678;2022-08-19T04:40:41;6.77;;;5.70;;
5412;SDS011;2729;50.056;8.678;2022-08-19T04:43:27;15.03;;;6.23;;
5412;SDS011;2729;50.056;8.678;2022-08-19T04:45:54;9.80;;;6.00;;
5412;SDS011;2729;50.056;8.678;2022-08-19T04:48:20;7.10;;;5.40;;
5412;SDS011;2729;50.056;8.678;2022-08-19T04:50:52;6.30;;;5.47;;
5412;SDS011;2729;50.056;8.678;2022-08-19T04:53:26;8.50;;;5.63;;
5412;SDS011;2729;50.056;8.678;2022-08-19T04:55:58;7.60;;;5.10;;
5412;SDS011;2729;50.056;8.678;2022-08-19T04:58:26;7.60;;;5.33;;
5412;SDS011;2729;50.056;8.678;2022-08-19T05:00:53;6.10;;;5.50;;
5412;SDS011;2729;50.056;8.678;2022-08-19T05:03:20;7.57;;;5.17;;
5412;SDS011;2729;50.056;8.678;2022-08-19T05:05:47;7.30;;;5.03;;
5412;SDS011;2729;50.056;8.678;2022-08-19T05:08:15;7.63;;;4.60;;
5412;SDS011;2729;50.056;8.678;2022-08-19T05:10:45;6.60;;;5.50;;
5412;SDS011;2729;50.056;8.678;2022-08-19T05:13:14;7.03;;;6.33;;
5412;SDS011;2729;50.056;8.678;2022-08-19T05:15:42;7.70;;;5.27;;
5412;SDS011;2729;50.056;8.678;2022-08-19T05:18:09;6.97;;;5.30;;
5412;SDS011;2729;50.056;8.678;2022-08-19T05:20:53;7.63;;;5.13;;
5412;SDS011;2729;50.056;8.678;2022-08-19T05:23:38;6.60;;;5.10;;
5412;SDS011;2729;50.056;8.678;2022-08-19T05:26:05;6.43;;;5.60;;
5412;SDS011;2729;50.056;8.678;2022-08-19T05:28:31;10.53;;;4.90;;
5412;SDS011;2729;50.056;8.678;2022-08-19T05:30:57;5.50;;;4.70;;
5412;SDS011;2729;50.056;8.678;2022-08-19T05:33:23;5.53;;;4.93;;
5412;SDS011;2729;50.056;8.678;2022-08-19T05:35:49;8.40;;;4.77;;
5412;SDS011;2729;50.056;8.678;2022-08-19T05:38:16;8.13;;;5.40;;
5412;SDS011;2729;50.056;8.678;2022-08-19T05:40:43;5.50;;;4.70;;
5412;SDS011;2729;50.056;8.678;2022-08-19T05:43:12;8.20;;;5.43;;
5412;SDS011;2729;50.056;8.678;2022-08-19T05:45:41;9.10;;;4.57;;
5412;SDS011;2729;50.056;8.678;2022-08-19T05:48:08;5.03;;;4.47;;
5412;SDS011;2729;50.056;8.678;2022-08-19T05:50:39;4.67;;;3.80;;
5412;SDS011;2729;50.056;8.678;2022-08-19T05:53:06;5.27;;;4.50;;
5412;SDS011;2729;50.056;8.678;2022-08-19T05:55:34;7.00;;;4.50;;
5412;SDS011;2729;50.056;8.678;2022-08-19T05:58:00;8.13;;;4.90;;
5412;SDS011;2729;50.056;8.678;2022-08-19T06:00:27;8.80;;;4.50;;
5412;SDS011;2729;50.056;8.678;2022-08-19T06:02:53;5.37;;;4.30;;
5412;SDS011;2729;50.056;8.678;2022-08-19T06:05:21;6.30;;;4.77;;
5412;SDS011;2729;50.056;8.678;2022-08-19T06:07:47;6.03;;;4.83;;
5412;SDS011;2729;50.056;8.678;2022-08-19T06:10:14;8.03;;;4.77;;
5412;SDS011;2729;50.056;8.678;2022-08-19T06:12:40;4.60;;;4.03;;
5412;SDS011;2729;50.056;8.678;2022-08-19T06:15:10;5.23;;;3.87;;
5412;SDS011;2729;50.056;8.678;2022-08-19T06:17:37;8.60;;;4.30;;
5412;SDS011;2729;50.056;8.678;2022-08-19T06:20:04;4.60;;;3.90;;
5412;SDS011;2729;50.056;8.678;2022-08-19T06:22:36;7.23;;;4.87;;
5412;SDS011;2729;50.056;8.678;2022-08-19T06:25:04;4.73;;;4.00;;
5412;SDS011;2729;50.056;8.678;2022-08-19T06:27:30;4.67;;;4.13;;
5412;SDS011;2729;50.056;8.678;2022-08-19T06:29:58;5.57;;;4.63;;
5412;SDS011;2729;50.056;8.678;2022-08-19T06:32:26;5.50;;;3.90;;
5412;SDS011;2729;50.056;8.678;2022-08-19T06:34:52;5.00;;;3.83;;
5412;SDS011;2729;50.056;8.678;2022-08-19T06:37:18;4.27;;;3.73;;
5412;SDS011;2729;50.056;8.678;2022-08-19T06:39:44;5.10;;;4.10;;
5412;SDS011;2729;50.056;8.678;2022-08-19T06:42:11;5.60;;;4.50;;
5412;SDS011;2729;50.056;8.678;2022-08-19T06:44:39;5.17;;;4.10;;
5412;SDS011;2729;50.056;8.678;2022-08-19T06:47:07;3.73;;;3.43;;
5412;SDS011;2729;50.056;8.678;2022-08-19T06:49:35;4.33;;;3.50;;
5412;SDS011;2729;50.056;8.678;2022-08-19T06:52:01;9.23;;;4.10;;
5412;SDS011;2729;50.056;8.678;2022-08-19T06:54:28;4.33;;;3.90;;
5412;SDS011;2729;50.056;8.678;2022-08-19T06:56:55;7.50;;;3.30;;
5412;SDS011;2729;50.056;8.678;2022-08-19T06:59:24;4.20;;;3.80;;
5412;SDS011;2729;50.056;8.678;2022-08-19T07:01:53;6.70;;;4.53;;
5412;SDS011;2729;50.056;8.678;2022-08-19T07:04:22;3.90;;;3.50;;
5412;SDS011;2729;50.056;8.678;2022-08-19T07:06:56;8.13;;;3.90;;
5412;SDS011;2729;50.056;8.678;2022-08-19T07:09:25;10.47;;;3.40;;
5412;SDS011;2729;50.056;8.678;2022-08-19T07:11:52;3.57;;;3.27;;
5412;SDS011;2729;50.056;8.678;2022-08-19T07:14:21;4.17;;;3.77;;
5412;SDS011;2729;50.056;8.678;2022-08-19T07:16:49;4.93;;;3.43;;
5412;SDS011;2729;50.056;8.678;2022-08-19T07:19:17;3.43;;;3.13;;
5412;SDS011;2729;50.056;8.678;2022-08-19T07:21:44;2.93;;;2.73;;
5412;SDS011;2729;50.056;8.678;2022-08-19T07:24:15;4.10;;;3.57;;
5412;SDS011;2729;50.056;8.678;2022-08-19T07:26:42;3.87;;;3.47;;
5412;SDS011;2729;50.056;8.678;2022-08-19T07:29:09;2.87;;;2.67;;
5412;SDS011;2729;50.056;8.678;2022-08-19T07:31:36;3.57;;;3.27;;
5412;SDS011;2729;50.056;8.678;2022-08-19T07:34:03;4.23;;;2.30;;
5412;SDS011;2729;50.056;8.678;2022-08-19T07:36:35;3.53;;;2.83;;
5412;SDS011;2729;50.056;8.678;2022-08-19T07:39:04;3.20;;;2.90;;
5412;SDS011;2729;50.056;8.678;2022-08-19T07:41:36;3.30;;;2.90;;
5412;SDS011;2729;50.056;8.678;2022-08-19T07:44:03;2.67;;;2.47;;
5412;SDS011;2729;50.056;8.678;2022-08-19T07:46:32;3.80;;;3.43;;
5412;SDS011;2729;50.056;8.678;2022-08-19T07:48:59;3.73;;;3.30;;
5412;SDS011;2729;50.056;8.678;2022-08-19T07:51:26;5.77;;;3.50;;
5412;SDS011;2729;50.056;8.678;2022-08-19T07:53:53;3.63;;;3.30;;
5412;SDS011;2729;50.056;8.678;2022-08-19T07:56:20;5.07;;;3.17;;
5412;SDS011;2729;50.056;8.678;2022-08-19T07:58:47;7.37;;;4.23;;
5412;SDS011;2729;50.056;8.678;2022-08-19T08:01:17;3.67;;;3.23;;
5412;SDS011;2729;50.056;8.678;2022-08-19T08:03:45;4.30;;;3.90;;
5412;SDS011;2729;50.056;8.678;2022-08-19T08:06:40;10.97;;;4.87;;
5412;SDS011;2729;50.056;8.678;2022-08-19T08:09:28;4.83;;;3.53;;
5412;SDS011;2729;50.056;8.678;2022-08-19T08:11:59;3.10;;;2.90;;
5412;SDS011;2729;50.056;8.678;2022-08-19T08:14:31;3.50;;;2.77;;
5412;SDS011;2729;50.056;8.678;2022-08-19T08:17:03;3.77;;;3.37;;
5412;SDS011;2729;50.056;8.678;2022-08-19T08:19:30;3.60;;;2.67;;
5412;SDS011;2729;50.056;8.678;2022-08-19T08:21:57;2.50;;;2.30;;
5412;SDS011;2729;50.056;8.678;2022-08-19T08:24:25;3.50;;;3.20;;
5412;SDS011;2729;50.056;8.678;2022-08-19T08:26:52;3.50;;;3.07;;
5412;SDS011;2729;50.056;8.678;2022-08-19T08:29:18;3.40;;;3.00;;
5412;SDS011;2729;50.056;8.678;2022-08-19T08:31:45;3.40;;;3.10;;
5412;SDS011;2729;50.056;8.678;2022-08-19T08:34:13;3.27;;;3.00;;
5412;SDS011;2729;50.056;8.678;2022-08-19T08:36:40;3.07;;;2.87;;
5412;SDS011;2729;50.056;8.678;2022-08-19T08:39:09;4.60;;;3.50;;
5412;SDS011;2729;50.056;8.678;2022-08-19T08:42:10;5.03;;;3.53;;
5412;SDS011;2729;50.056;8.678;2022-08-19T08:47:02;2.93;;;2.70;;
5412;SDS011;2729;50.056;8.678;2022-08-19T08:49:36;3.43;;;3.20;;
5412;SDS011;2729;50.056;8.678;2022-08-19T08:52:16;3.50;;;3.20;;
5412;SDS011;2729;50.056;8.678;2022-08-19T08:54:50;3.67;;;3.30;;
5412;SDS011;2729;50.056;8.678;2022-08-19T08:57:42;3.83;;;3.40;;
5412;SDS011;2729;50.056;8.678;2022-08-19T09:00:18;3.40;;;3.10;;
5412;SDS011;2729;50.056;8.678;2022-08-19T09:02:47;3.60;;;3.30;;
5412;SDS011;2729;50.056;8.678;2022-08-19T09:05:14;4.63;;;3.27;;
5412;SDS011;2729;50.056;8.678;2022-08-19T09:07:52;3.33;;;2.87;;
5412;SDS011;2729;50.056;8.678;2022-08-19T09:10:29;3.03;;;2.80;;
5412;SDS011;2729;50.056;8.678;2022-08-19T09:16:05;5.00;;;3.20;;
5412;SDS011;2729;50.056;8.678;2022-08-19T09:18:38;3.60;;;3.30;;
5412;SDS011;2729;50.056;8.678;2022-08-19T09:21:13;3.70;;;3.40;;
5412;SDS011;2729;50.056;8.678;2022-08-19T09:23:39;4.07;;;3.77;;
5412;SDS011;2729;50.056;8.678;2022-08-19T09:26:06;3.30;;;3.00;;
5412;SDS011;2729;50.056;8.678;2022-08-19T09:28:34;3.63;;;3.33;;
5412;SDS011;2729;50.056;8.678;2022-08-19T09:31:00;3.30;;;3.00;;
5412;SDS011;2729;50.056;8.678;2022-08-19T09:33:26;3.67;;;3.33;;
5412;SDS011;2729;50.056;8.678;2022-08-19T09:36:01;4.00;;;3.60;;
5412;SDS011;2729;50.056;8.678;2022-08-19T09:38:28;4.13;;;3.30;;
5412;SDS011;2729;50.056;8.678;2022-08-19T09:40:54;2.90;;;2.70;;
5412;SDS011;2729;50.056;8.678;2022-08-19T09:43:20;3.40;;;3.10;;
5412;SDS011;2729;50.056;8.678;2022-08-19T09:45:47;3.10;;;2.90;;
5412;SDS011;2729;50.056;8.678;2022-08-19T09:48:13;3.37;;;3.10;;
5412;SDS011;2729;50.056;8.678;2022-08-19T09:50:39;5.37;;;3.40;;
5412;SDS011;2729;50.056;8.678;2022-08-19T09:53:05;9.17;;;3.27;;
5412;SDS011;2729;50.056;8.678;2022-08-19T09:55:33;2.87;;;2.67;;
5412;SDS011;2729;50.056;8.678;2022-08-19T09:58:00;7.17;;;3.63;;
5412;SDS011;2729;50.056;8.678;2022-08-19T10:00:26;3.10;;;2.80;;
5412;SDS011;2729;50.056;8.678;2022-08-19T10:02:52;2.87;;;2.60;;
5412;SDS011;2729;50.056;8.678;2022-08-19T10:05:18;6.33;;;3.00;;
5412;SDS011;2729;50.056;8.678;2022-08-19T10:08:02;3.40;;;2.70;;
5412;SDS011;2729;50.056;8.678;2022-08-19T10:10:28;3.50;;;3.20;;
5412;SDS011;2729;50.056;8.678;2022-08-19T10:12:54;3.83;;;3.47;;
5412;SDS011;2729;50.056;8.678;2022-08-19T10:15:20;5.23;;;3.90;;
5412;SDS011;2729;50.056;8.678;2022-08-19T10:17:46;3.27;;;2.97;;
5412;SDS011;2729;50.056;8.678;2022-08-19T10:20:13;4.77;;;3.70;;
5412;SDS011;2729;50.056;8.678;2022-08-19T10:22:39;3.67;;;3.17;;
5412;SDS011;2729;50.056;8.678;2022-08-19T10:25:05;3.70;;;3.40;;
5412;SDS011;2729;50.056;8.678;2022-08-19T10:27:31;3.70;;;3.30;;
5412;SDS011;2729;50.056;8.678;2022-08-19T10:29:58;3.87;;;3.23;;
5412;SDS011;2729;50.056;8.678;2022-08-19T10:32:23;3.97;;;3.40;;
5412;SDS011;2729;50.056;8.678;2022-08-19T10:34:50;9.27;;;4.07;;
5412;SDS011;2729;50.056;8.678;2022-08-19T10:37:17;5.40;;;3.57;;
5412;SDS011;2729;50.056;8.678;2022-08-19T10:39:45;7.30;;;4.23;;
5412;SDS011;2729;50.056;8.678;2022-08-19T10:42:13;7.80;;;3.80;;
5412;SDS011;2729;50.056;8.678;2022-08-19T10:44:39;4.30;;;3.90;;
5412;SDS011;2729;50.056;8.678;2022-08-19T10:47:06;4.50;;;3.93;;
5412;SDS011;2729;50.056;8.678;2022-08-19T10:49:32;4.30;;;3.90;;
5412;SDS011;2729;50.056;8.678;2022-08-19T10:52:18;5.13;;;3.50;;
5412;SDS011;2729;50.056;8.678;2022-08-19T10:58:34;3.90;;;3.50;;
5412;SDS011;2729;50.056;8.678;2022-08-19T11:01:00;4.57;;;4.17;;
5412;SDS011;2729;50.056;8.678;2022-08-19T11:03:26;4.50;;;4.03;;
5412;SDS011;2729;50.056;8.678;2022-08-19T11:05:59;4.70;;;4.30;;
5412;SDS011;2729;50.056;8.678;2022-08-19T11:08:26;4.47;;;4.07;;
5412;SDS011;2729;50.056;8.678;2022-08-19T11:10:53;5.03;;;4.57;;
5412;SDS011;2729;50.056;8.678;2022-08-19T11:13:23;6.17;;;5.27;;
5412;SDS011;2729;50.056;8.678;2022-08-19T11:16:04;7.07;;;5.67;;
5412;SDS011;2729;50.056;8.678;2022-08-19T11:18:43;5.73;;;4.00;;
5412;SDS011;2729;50.056;8.678;2022-08-19T11:21:15;13.20;;;5.60;;
5412;SDS011;2729;50.056;8.678;2022-08-19T11:23:48;6.07;;;4.67;;
5412;SDS011;2729;50.056;8.678;2022-08-19T11:26:16;6.40;;;5.40;;
5412;SDS011;2729;50.056;8.678;2022-08-19T11:28:43;5.77;;;4.83;;
5412;SDS011;2729;50.056;8.678;2022-08-19T11:31:10;8.23;;;4.47;;
5412;SDS011;2729;50.056;8.678;2022-08-19T11:33:38;4.73;;;4.33;;
5412;SDS011;2729;50.056;8.678;2022-08-19T11:36:04;5.00;;;4.47;;
5412;SDS011;2729;50.056;8.678;2022-08-19T11:38:30;6.90;;;5.73;;
5412;SDS011;2729;50.056;8.678;2022-08-19T11:40:57;4.90;;;4.40;;
5412;SDS011;2729;50.056;8.678;2022-08-19T11:43:25;5.37;;;4.87;;
5412;SDS011;2729;50.056;8.678;2022-08-19T11:45:53;6.40;;;5.27;;
5412;SDS011;2729;50.056;8.678;2022-08-19T11:48:19;5.63;;;4.90;;
5412;SDS011;2729;50.056;8.678;2022-08-19T11:50:48;5.20;;;4.70;;
5412;SDS011;2729;50.056;8.678;2022-08-19T11:53:16;7.10;;;5.70;;
5412;SDS011;2729;50.056;8.678;2022-08-19T11:55:43;7.17;;;5.50;;
5412;SDS011;2729;50.056;8.678;2022-08-19T11:58:10;6.00;;;5.40;;
5412;SDS011;2729;50.056;8.678;2022-08-19T12:00:38;7.33;;;5.27;;
5412;SDS011;2729;50.056;8.678;2022-08-19T12:03:05;5.80;;;4.90;;
5412;SDS011;2729;50.056;8.678;2022-08-19T12:05:31;9.33;;;5.67;;
5412;SDS011;2729;50.056;8.678;2022-08-19T12:07:57;7.90;;;5.73;;
5412;SDS011;2729;50.056;8.678;2022-08-19T12:10:23;7.20;;;5.87;;
5412;SDS011;2729;50.056;8.678;2022-08-19T12:12:49;7.03;;;6.00;;
5412;SDS011;2729;50.056;8.678;2022-08-19T12:15:15;6.00;;;5.10;;
5412;SDS011;2729;50.056;8.678;2022-08-19T12:17:41;6.13;;;5.53;;
5412;SDS011;2729;50.056;8.678;2022-08-19T12:20:08;8.60;;;6.27;;
5412;SDS011;2729;50.056;8.678;2022-08-19T12:22:37;6.77;;;5.77;;
5412;SDS011;2729;50.056;8.678;2022-08-19T12:25:03;6.50;;;5.47;;
5412;SDS011;2729;50.056;8.678;2022-08-19T12:27:30;6.60;;;5.23;;
5412;SDS011;2729;50.056;8.678;2022-08-19T12:29:56;6.47;;;5.10;;
5412;SDS011;2729;50.056;8.678;2022-08-19T12:32:23;8.20;;;5.80;;
5412;SDS011;2729;50.056;8.678;2022-08-19T12:34:50;6.97;;;5.40;;
5412;SDS011;2729;50.056;8.678;2022-08-19T12:37:16;9.50;;;5.73;;
5412;SDS011;2729;50.056;8.678;2022-08-19T12:39:42;7.57;;;5.40;;
5412;SDS011;2729;50.056;8.678;2022-08-19T12:42:09;5.00;;;4.60;;
5412;SDS011;2729;50.056;8.678;2022-08-19T12:44:37;6.20;;;5.60;;
5412;SDS011;2729;50.056;8.678;2022-08-19T12:47:05;6.17;;;5.37;;
5412;SDS011;2729;50.056;8.678;2022-08-19T12:49:32;8.73;;;5.20;;
5412;SDS011;2729;50.056;8.678;2022-08-19T12:52:00;6.03;;;5.43;;
5412;SDS011;2729;50.056;8.678;2022-08-19T12:54:26;5.70;;;4.80;;
5412;SDS011;2729;50.056;8.678;2022-08-19T12:56:54;5.17;;;4.77;;
5412;SDS011;2729;50.056;8.678;2022-08-19T12:59:21;5.40;;;4.90;;
5412;SDS011;2729;50.056;8.678;2022-08-19T13:01:46;4.20;;;3.80;;
5412;SDS011;2729;50.056;8.678;2022-08-19T13:04:12;5.57;;;4.80;;
5412;SDS011;2729;50.056;8.678;2022-08-19T13:06:38;6.17;;;5.57;;
5412;SDS011;2729;50.056;8.678;2022-08-19T13:09:04;5.77;;;4.93;;
5412;SDS011;2729;50.056;8.678;2022-08-19T13:11:30;5.57;;;4.93;;
5412;SDS011;2729;50.056;8.678;2022-08-19T13:13:59;7.60;;;4.97;;
5412;SDS011;2729;50.056;8.678;2022-08-19T13:16:26;5.10;;;4.57;;
5412;SDS011;2729;50.056;8.678;2022-08-19T13:18:53;12.77;;;4.87;;
5412;SDS011;2729;50.056;8.678;2022-08-19T13:21:22;4.80;;;4.37;;
5412;SDS011;2729;50.056;8.678;2022-08-19T13:23:50;5.97;;;4.50;;
5412;SDS011;2729;50.056;8.678;2022-08-19T13:26:16;4.43;;;3.90;;
5412;SDS011;2729;50.056;8.678;2022-08-19T13:28:43;8.73;;;4.97;;
5412;SDS011;2729;50.056;8.678;2022-08-19T13:31:30;4.50;;;4.10;;
5412;SDS011;2729;50.056;8.678;2022-08-19T13:34:17;7.53;;;4.43;;
5412;SDS011;2729;50.056;8.678;2022-08-19T13:36:45;13.30;;;3.90;;
5412;SDS011;2729;50.056;8.678;2022-08-19T13:39:11;4.53;;;4.03;;
5412;SDS011;2729;50.056;8.678;2022-08-19T13:41:42;4.23;;;3.83;;
5412;SDS011;2729;50.056;8.678;2022-08-19T13:44:13;7.73;;;4.40;;
5412;SDS011;2729;50.056;8.678;2022-08-19T13:46:41;4.37;;;3.97;;
5412;SDS011;2729;50.056;8.678;2022-08-19T13:49:12;5.77;;;3.90;;
5412;SDS011;2729;50.056;8.678;2022-08-19T13:51:41;7.80;;;3.70;;
5412;SDS011;2729;50.056;8.678;2022-08-19T13:54:09;4.30;;;3.77;;
5412;SDS011;2729;50.056;8.678;2022-08-19T13:56:40;4.47;;;3.00;;
5412;SDS011;2729;50.056;8.678;2022-08-19T13:59:07;5.50;;;3.90;;
5412;SDS011;2729;50.056;8.678;2022-08-19T14:01:33;3.93;;;3.57;;
5412;SDS011;2729;50.056;8.678;2022-08-19T14:04:00;3.73;;;3.43;;
5412;SDS011;2729;50.056;8.678;2022-08-19T14:06:27;3.83;;;3.53;;
5412;SDS011;2729;50.056;8.678;2022-08-19T14:08:53;3.70;;;3.40;;
5412;SDS011;2729;50.056;8.678;2022-08-19T14:11:19;4.73;;;3.80;;
5412;SDS011;2729;50.056;8.678;2022-08-19T14:13:45;3.77;;;3.47;;
5412;SDS011;2729;50.056;8.678;2022-08-19T14:16:11;4.80;;;3.13;;
5412;SDS011;2729;50.056;8.678;2022-08-19T14:18:39;3.23;;;2.93;;
5412;SDS011;2729;50.056;8.678;2022-08-19T14:21:06;3.53;;;3.27;;
5412;SDS011;2729;50.056;8.678;2022-08-19T14:23:33;4.93;;;3.50;;
5412;SDS011;2729;50.056;8.678;2022-08-19T14:26:06;3.53;;;3.23;;
5412;SDS011;2729;50.056;8.678;2022-08-19T14:28:34;3.37;;;3.10;;
5412;SDS011;2729;50.056;8.678;2022-08-19T14:31:01;3.40;;;3.10;;
5412;SDS011;2729;50.056;8.678;2022-08-19T14:33:26;2.60;;;2.40;;
5412;SDS011;2729;50.056;8.678;2022-08-19T14:35:52;3.90;;;3.30;;
5412;SDS011;2729;50.056;8.678;2022-08-19T14:38:18;3.80;;;3.33;;
5412;SDS011;2729;50.056;8.678;2022-08-19T14:40:45;6.90;;;3.47;;
5412;SDS011;2729;50.056;8.678;2022-08-19T14:43:11;3.57;;;3.10;;
5412;SDS011;2729;50.056;8.678;2022-08-19T14:45:38;3.10;;;2.90;;
5412;SDS011;2729;50.056;8.678;2022-08-19T14:48:05;3.60;;;3.30;;
5412;SDS011;2729;50.056;8.678;2022-08-19T14:50:33;6.57;;;3.37;;
5412;SDS011;2729;50.056;8.678;2022-08-19T14:53:03;3.33;;;3.03;;
5412;SDS011;2729;50.056;8.678;2022-08-19T14:55:32;5.23;;;3.37;;
5412;SDS011;2729;50.056;8.678;2022-08-19T14:57:59;2.87;;;2.67;;
5412;SDS011;2729;50.056;8.678;2022-08-19T15:00:25;3.60;;;3.00;;
5412;SDS011;2729;50.056;8.678;2022-08-19T15:02:51;3.07;;;2.80;;
5412;SDS011;2729;50.056;8.678;2022-08-19T15:05:18;3.00;;;2.80;;
5412;SDS011;2729;50.056;8.678;2022-08-19T15:07:44;3.27;;;3.03;;
5412;SDS011;2729;50.056;8.678;2022-08-19T15:10:11;3.40;;;3.10;;
5412;SDS011;2729;50.056;8.678;2022-08-19T15:12:38;3.30;;;3.00;;
5412;SDS011;2729;50.056;8.678;2022-08-19T15:15:08;3.20;;;2.90;;
5412;SDS011;2729;50.056;8.678;2022-08-19T15:17:43;3.60;;;3.30;;
5412;SDS011;2729;50.056;8.678;2022-08-19T15:20:10;3.47;;;3.20;;
5412;SDS011;2729;50.056;8.678;2022-08-19T15:22:39;3.70;;;3.40;;
5412;SDS011;2729;50.056;8.678;2022-08-19T15:25:05;2.90;;;2.70;;
5412;SDS011;2729;50.056;8.678;2022-08-19T15:27:33;2.47;;;2.37;;
5412;SDS011;2729;50.056;8.678;2022-08-19T15:30:00;3.50;;;3.20;;
5412;SDS011;2729;50.056;8.678;2022-08-19T15:32:26;2.70;;;2.50;;